sensor_id;sensor_type;location;lat;lon;timestamp;temperature;humidity
31113;DHT22;17763;48.730;9.136;2024-03-08T00:00:18;4.10;99.90
31113;DHT22;17763;48.730;9.136;2024-03-08T00:02:47;4.10;99.90
31113;DHT22;17763;48.730;9.136;2024-03-08T00:05:13;4.10;99.90
31113;DHT22;17763;48.730;9.136;2024-03-08T00:07:40;4.00;99.90
31113;DHT22;17763;48.730;9.136;2024-03-08T00:10:07;4.00;99.90
31113;DHT22;17763;48.730;9.136;2024-03-08T00:12:37;4.00;99.90
31113;DHT22;17763;48.730;9.136;2024-03-08T00:15:10;4.00;99.90
31113;DHT22;17763;48.730;9.136;2024-03-08T00:17:36;4.00;99.90
31113;DHT22;17763;48.730;9.136;2024-03-08T00:20:03;3.90;99.90
31113;DHT22;17763;48.730;9.136;2024-03-08T00:22:34;3.90;99.90
31113;DHT22;17763;48.730;9.136;2024-03-08T00:25:00;3.90;99.90
31113;DHT22;17763;48.730;9.136;2024-03-08T00:27:25;3.90;99.90
31113;DHT22;17763;48.730;9.136;2024-03-08T00:29:51;3.90;99.90
31113;DHT22;17763;48.730;9.136;2024-03-08T00:32:16;3.90;99.90
31113;DHT22;17763;48.730;9.136;2024-03-08T00:34:42;3.90;99.90
31113;DHT22;17763;48.730;9.136;2024-03-08T00:37:08;3.80;99.90
31113;DHT22;17763;48.730;9.136;2024-03-08T00:39:34;3.80;99.90
31113;DHT22;17763;48.730;9.136;2024-03-08T00:42:00;3.80;99.90
31113;DHT22;17763;48.730;9.136;2024-03-08T00:44:25;3.80;99.90
31113;DHT22;17763;48.730;9.136;2024-03-08T00:46:53;3.70;99.90
31113;DHT22;17763;48.730;9.136;2024-03-08T00:49:21;3.70;99.90
31113;DHT22;17763;48.730;9.136;2024-03-08T00:51:48;3.70;99.90
31113;DHT22;17763;48.730;9.136;2024-03-08T00:54:14;3.70;99.90
31113;DHT22;17763;48.730;9.136;2024-03-08T00:56:40;3.70;99.90
31113;DHT22;17763;48.730;9.136;2024-03-08T00:59:07;3.70;99.90
31113;DHT22;17763;48.730;9.136;2024-03-08T01:01:35;3.60;99.90
31113;DHT22;17763;48.730;9.136;2024-03-08T01:04:00;3.60;99.90
31113;DHT22;17763;48.730;9.136;2024-03-08T01:06:26;3.60;99.90
31113;DHT22;17763;48.730;9.136;2024-03-08T01:08:52;3.50;99.90
31113;DHT22;17763;48.730;9.136;2024-03-08T01:11:20;3.60;99.90
31113;DHT22;17763;48.730;9.136;2024-03-08T01:13:46;3.60;99.90
31113;DHT22;17763;48.730;9.136;2024-03-08T01:16:15;3.60;99.90
31113;DHT22;17763;48.730;9.136;2024-03-08T01:18:42;3.50;99.90
31113;DHT22;17763;48.730;9.136;2024-03-08T01:21:08;3.50;99.90
31113;DHT22;17763;48.730;9.136;2024-03-08T01:23:34;3.50;99.90
31113;DHT22;17763;48.730;9.136;2024-03-08T01:26:00;3.50;99.90
31113;DHT22;17763;48.730;9.136;2024-03-08T01:28:27;3.50;99.90
31113;DHT22;17763;48.730;9.136;2024-03-08T01:30:53;3.50;99.90
31113;DHT22;17763;48.730;9.136;2024-03-08T01:33:23;3.50;99.90
31113;DHT22;17763;48.730;9.136;2024-03-08T01:35:51;3.50;99.90
31113;DHT22;17763;48.730;9.136;2024-03-08T01:38:17;3.40;99.90
31113;DHT22;17763;48.730;9.136;2024-03-08T01:40:42;3.40;99.90
31113;DHT22;17763;48.730;9.136;2024-03-08T01:43:21;3.40;99.90
31113;DHT22;17763;48.730;9.136;2024-03-08T01:45:47;3.40;99.90
31113;DHT22;17763;48.730;9.136;2024-03-08T01:48:17;3.30;99.90
31113;DHT22;17763;48.730;9.136;2024-03-08T01:50:43;3.30;99.90
31113;DHT22;17763;48.730;9.136;2024-03-08T01:53:10;3.30;99.90
31113;DHT22;17763;48.730;9.136;2024-03-08T01:55:39;3.30;99.90
31113;DHT22;17763;48.730;9.136;2024-03-08T01:58:09;3.30;99.90
31113;DHT22;17763;48.730;9.136;2024-03-08T02:00:35;3.30;99.90
31113;DHT22;17763;48.730;9.136;2024-03-08T02:03:02;3.20;99.90
31113;DHT22;17763;48.730;9.136;2024-03-08T02:05:28;3.20;99.90
31113;DHT22;17763;48.730;9.136;2024-03-08T02:07:54;3.20;99.90
31113;DHT22;17763;48.730;9.136;2024-03-08T02:10:20;3.20;99.90
31113;DHT22;17763;48.730;9.136;2024-03-08T02:12:47;3.10;99.90
31113;DHT22;17763;48.730;9.136;2024-03-08T02:15:16;3.10;99.90
31113;DHT22;17763;48.730;9.136;2024-03-08T02:17:42;3.10;99.90
31113;DHT22;17763;48.730;9.136;2024-03-08T02:20:10;3.10;99.90
31113;DHT22;17763;48.730;9.136;2024-03-08T02:22:38;3.10;99.90
31113;DHT22;17763;48.730;9.136;2024-03-08T02:25:05;3.00;99.90
31113;DHT22;17763;48.730;9.136;2024-03-08T02:27:31;3.00;99.90
31113;DHT22;17763;48.730;9.136;2024-03-08T02:30:01;3.00;99.90
31113;DHT22;17763;48.730;9.136;2024-03-08T02:32:30;3.00;99.90
31113;DHT22;17763;48.730;9.136;2024-03-08T02:34:58;3.00;99.90
31113;DHT22;17763;48.730;9.136;2024-03-08T02:37:25;2.90;99.90
31113;DHT22;17763;48.730;9.136;2024-03-08T02:39:51;2.90;99.90
31113;DHT22;17763;48.730;9.136;2024-03-08T02:42:17;2.90;99.90
31113;DHT22;17763;48.730;9.136;2024-03-08T02:44:43;2.90;99.90
31113;DHT22;17763;48.730;9.136;2024-03-08T02:47:12;2.90;99.90
31113;DHT22;17763;48.730;9.136;2024-03-08T02:49:37;2.90;99.90
31113;DHT22;17763;48.730;9.136;2024-03-08T02:52:04;2.90;99.90
31113;DHT22;17763;48.730;9.136;2024-03-08T02:54:30;2.90;99.90
31113;DHT22;17763;48.730;9.136;2024-03-08T02:56:56;2.90;99.90
31113;DHT22;17763;48.730;9.136;2024-03-08T02:59:22;2.90;99.90
31113;DHT22;17763;48.730;9.136;2024-03-08T03:01:47;2.80;99.90
31113;DHT22;17763;48.730;9.136;2024-03-08T03:04:15;2.80;99.90
31113;DHT22;17763;48.730;9.136;2024-03-08T03:06:41;2.80;99.90
31113;DHT22;17763;48.730;9.136;2024-03-08T03:09:06;2.80;99.90
31113;DHT22;17763;48.730;9.136;2024-03-08T03:11:32;2.80;99.90
31113;DHT22;17763;48.730;9.136;2024-03-08T03:13:58;2.80;99.90
31113;DHT22;17763;48.730;9.136;2024-03-08T03:16:23;2.70;99.90
31113;DHT22;17763;48.730;9.136;2024-03-08T03:18:51;2.70;99.90
31113;DHT22;17763;48.730;9.136;2024-03-08T03:21:19;2.70;99.90
31113;DHT22;17763;48.730;9.136;2024-03-08T03:23:45;2.70;99.90
31113;DHT22;17763;48.730;9.136;2024-03-08T03:26:15;2.70;99.90
31113;DHT22;17763;48.730;9.136;2024-03-08T03:28:42;2.70;99.90
31113;DHT22;17763;48.730;9.136;2024-03-08T03:31:08;2.70;99.90
31113;DHT22;17763;48.730;9.136;2024-03-08T03:33:39;2.70;99.90
31113;DHT22;17763;48.730;9.136;2024-03-08T03:36:05;2.60;99.90
31113;DHT22;17763;48.730;9.136;2024-03-08T03:38:31;2.60;99.90
31113;DHT22;17763;48.730;9.136;2024-03-08T03:40:57;2.60;99.90
31113;DHT22;17763;48.730;9.136;2024-03-08T03:43:29;2.60;99.90
31113;DHT22;17763;48.730;9.136;2024-03-08T03:45:55;2.60;99.90
31113;DHT22;17763;48.730;9.136;2024-03-08T03:48:21;2.60;99.90
31113;DHT22;17763;48.730;9.136;2024-03-08T03:50:46;2.50;99.90
31113;DHT22;17763;48.730;9.136;2024-03-08T03:53:12;2.50;99.90
31113;DHT22;17763;48.730;9.136;2024-03-08T03:55:38;2.50;99.90
31113;DHT22;17763;48.730;9.136;2024-03-08T03:58:04;2.50;99.90
31113;DHT22;17763;48.730;9.136;2024-03-08T04:00:30;2.50;99.90
31113;DHT22;17763;48.730;9.136;2024-03-08T04:02:55;2.50;99.90
31113;DHT22;17763;48.730;9.136;2024-03-08T04:05:26;2.40;99.90
31113;DHT22;17763;48.730;9.136;2024-03-08T04:07:52;2.40;99.90
31113;DHT22;17763;48.730;9.136;2024-03-08T04:10:18;2.40;99.90
31113;DHT22;17763;48.730;9.136;2024-03-08T04:12:46;2.40;99.90
31113;DHT22;17763;48.730;9.136;2024-03-08T04:15:12;2.40;99.90
31113;DHT22;17763;48.730;9.136;2024-03-08T04:17:38;2.40;99.90
31113;DHT22;17763;48.730;9.136;2024-03-08T04:20:06;2.40;99.90
31113;DHT22;17763;48.730;9.136;2024-03-08T04:22:38;2.40;99.90
31113;DHT22;17763;48.730;9.136;2024-03-08T04:25:07;2.40;99.90
31113;DHT22;17763;48.730;9.136;2024-03-08T04:27:35;2.40;99.90
31113;DHT22;17763;48.730;9.136;2024-03-08T04:30:02;2.40;99.90
31113;DHT22;17763;48.730;9.136;2024-03-08T04:32:28;2.40;99.90
31113;DHT22;17763;48.730;9.136;2024-03-08T04:34:55;2.40;99.90
31113;DHT22;17763;48.730;9.136;2024-03-08T04:37:20;2.40;99.90
31113;DHT22;17763;48.730;9.136;2024-03-08T04:39:49;2.30;99.90
31113;DHT22;17763;48.730;9.136;2024-03-08T04:42:15;2.30;99.90
31113;DHT22;17763;48.730;9.136;2024-03-08T04:44:43;2.30;99.90
31113;DHT22;17763;48.730;9.136;2024-03-08T04:47:11;2.30;99.90
31113;DHT22;17763;48.730;9.136;2024-03-08T04:49:37;2.30;99.90
31113;DHT22;17763;48.730;9.136;2024-03-08T04:52:05;2.30;99.90
31113;DHT22;17763;48.730;9.136;2024-03-08T04:54:33;2.20;99.90
31113;DHT22;17763;48.730;9.136;2024-03-08T04:56:59;2.20;99.90
31113;DHT22;17763;48.730;9.136;2024-03-08T04:59:26;2.20;99.90
31113;DHT22;17763;48.730;9.136;2024-03-08T05:01:54;2.10;99.90
31113;DHT22;17763;48.730;9.136;2024-03-08T05:04:19;2.20;99.90
31113;DHT22;17763;48.730;9.136;2024-03-08T05:06:48;2.20;99.90
31113;DHT22;17763;48.730;9.136;2024-03-08T05:09:16;2.10;99.90
31113;DHT22;17763;48.730;9.136;2024-03-08T05:11:46;2.10;99.90
31113;DHT22;17763;48.730;9.136;2024-03-08T05:14:15;2.10;99.90
31113;DHT22;17763;48.730;9.136;2024-03-08T05:16:46;2.10;99.90
31113;DHT22;17763;48.730;9.136;2024-03-08T05:19:23;2.30;99.90
31113;DHT22;17763;48.730;9.136;2024-03-08T05:21:49;2.10;99.90
31113;DHT22;17763;48.730;9.136;2024-03-08T05:24:18;2.40;99.90
31113;DHT22;17763;48.730;9.136;2024-03-08T05:26:44;2.20;99.90
31113;DHT22;17763;48.730;9.136;2024-03-08T05:29:09;2.10;99.90
31113;DHT22;17763;48.730;9.136;2024-03-08T05:31:49;2.10;99.90
31113;DHT22;17763;48.730;9.136;2024-03-08T05:34:16;2.10;99.90
31113;DHT22;17763;48.730;9.136;2024-03-08T05:36:42;2.10;99.90
31113;DHT22;17763;48.730;9.136;2024-03-08T05:39:15;2.00;99.90
31113;DHT22;17763;48.730;9.136;2024-03-08T05:41:41;2.00;99.90
31113;DHT22;17763;48.730;9.136;2024-03-08T05:44:07;2.00;99.90
31113;DHT22;17763;48.730;9.136;2024-03-08T05:46:33;2.00;99.90
31113;DHT22;17763;48.730;9.136;2024-03-08T05:48:59;2.00;99.90
31113;DHT22;17763;48.730;9.136;2024-03-08T05:51:25;2.00;99.90
31113;DHT22;17763;48.730;9.136;2024-03-08T05:53:53;2.20;99.90
31113;DHT22;17763;48.730;9.136;2024-03-08T05:56:21;2.00;99.90
31113;DHT22;17763;48.730;9.136;2024-03-08T05:58:48;2.00;99.90
31113;DHT22;17763;48.730;9.136;2024-03-08T06:01:15;2.00;99.90
31113;DHT22;17763;48.730;9.136;2024-03-08T06:03:41;2.00;99.90
31113;DHT22;17763;48.730;9.136;2024-03-08T06:06:13;2.10;99.90
31113;DHT22;17763;48.730;9.136;2024-03-08T06:08:39;2.00;99.90
31113;DHT22;17763;48.730;9.136;2024-03-08T06:11:05;2.00;99.90
31113;DHT22;17763;48.730;9.136;2024-03-08T06:13:34;2.00;99.90
31113;DHT22;17763;48.730;9.136;2024-03-08T06:16:01;2.00;99.90
31113;DHT22;17763;48.730;9.136;2024-03-08T06:18:32;2.10;99.90
31113;DHT22;17763;48.730;9.136;2024-03-08T06:20:58;2.10;99.90
31113;DHT22;17763;48.730;9.136;2024-03-08T06:23:23;2.10;99.90
31113;DHT22;17763;48.730;9.136;2024-03-08T06:25:49;2.20;99.90
31113;DHT22;17763;48.730;9.136;2024-03-08T06:28:15;2.20;99.90
31113;DHT22;17763;48.730;9.136;2024-03-08T06:30:41;2.30;99.90
31113;DHT22;17763;48.730;9.136;2024-03-08T06:33:09;2.40;99.90
31113;DHT22;17763;48.730;9.136;2024-03-08T06:35:36;2.50;99.90
31113;DHT22;17763;48.730;9.136;2024-03-08T06:38:04;2.50;99.90
31113;DHT22;17763;48.730;9.136;2024-03-08T06:40:29;2.60;99.90
31113;DHT22;17763;48.730;9.136;2024-03-08T06:42:57;2.80;99.90
31113;DHT22;17763;48.730;9.136;2024-03-08T06:45:23;2.80;99.90
31113;DHT22;17763;48.730;9.136;2024-03-08T06:47:52;2.80;99.90
31113;DHT22;17763;48.730;9.136;2024-03-08T06:50:17;2.80;99.90
31113;DHT22;17763;48.730;9.136;2024-03-08T06:52:43;2.80;99.90
31113;DHT22;17763;48.730;9.136;2024-03-08T06:55:10;2.80;99.90
31113;DHT22;17763;48.730;9.136;2024-03-08T06:57:39;2.90;99.90
31113;DHT22;17763;48.730;9.136;2024-03-08T07:00:06;3.00;99.90
31113;DHT22;17763;48.730;9.136;2024-03-08T07:02:35;3.00;99.90
31113;DHT22;17763;48.730;9.136;2024-03-08T07:05:01;3.10;99.90
31113;DHT22;17763;48.730;9.136;2024-03-08T07:07:27;3.20;99.90
31113;DHT22;17763;48.730;9.136;2024-03-08T07:09:56;3.20;99.90
31113;DHT22;17763;48.730;9.136;2024-03-08T07:12:22;3.30;99.90
31113;DHT22;17763;48.730;9.136;2024-03-08T07:14:49;3.40;99.90
31113;DHT22;17763;48.730;9.136;2024-03-08T07:17:17;3.40;99.90
31113;DHT22;17763;48.730;9.136;2024-03-08T07:19:42;3.50;99.90
31113;DHT22;17763;48.730;9.136;2024-03-08T07:22:08;3.50;99.90
31113;DHT22;17763;48.730;9.136;2024-03-08T07:24:37;3.60;99.90
31113;DHT22;17763;48.730;9.136;2024-03-08T07:27:05;3.60;99.90
31113;DHT22;17763;48.730;9.136;2024-03-08T07:29:34;3.70;99.90
31113;DHT22;17763;48.730;9.136;2024-03-08T07:32:00;3.70;99.90
31113;DHT22;17763;48.730;9.136;2024-03-08T07:34:26;3.80;99.90
31113;DHT22;17763;48.730;9.136;2024-03-08T07:36:52;3.80;99.90
31113;DHT22;17763;48.730;9.136;2024-03-08T07:39:17;3.80;99.90
31113;DHT22;17763;48.730;9.136;2024-03-08T07:41:46;3.80;99.90
31113;DHT22;17763;48.730;9.136;2024-03-08T07:44:13;4.00;99.90
31113;DHT22;17763;48.730;9.136;2024-03-08T07:46:39;4.00;99.90
31113;DHT22;17763;48.730;9.136;2024-03-08T07:49:07;4.10;99.90
31113;DHT22;17763;48.730;9.136;2024-03-08T07:51:36;4.10;99.90
31113;DHT22;17763;48.730;9.136;2024-03-08T07:54:03;4.20;99.90
31113;DHT22;17763;48.730;9.136;2024-03-08T07:56:30;4.20;99.90
31113;DHT22;17763;48.730;9.136;2024-03-08T07:58:58;4.30;99.90
31113;DHT22;17763;48.730;9.136;2024-03-08T08:01:23;4.30;99.90
31113;DHT22;17763;48.730;9.136;2024-03-08T08:03:49;4.30;99.90
31113;DHT22;17763;48.730;9.136;2024-03-08T08:06:15;4.40;99.90
31113;DHT22;17763;48.730;9.136;2024-03-08T08:08:44;4.40;99.90
31113;DHT22;17763;48.730;9.136;2024-03-08T08:11:10;4.40;99.90
31113;DHT22;17763;48.730;9.136;2024-03-08T08:13:41;4.40;99.90
31113;DHT22;17763;48.730;9.136;2024-03-08T08:16:09;4.40;99.90
31113;DHT22;17763;48.730;9.136;2024-03-08T08:18:36;4.40;99.90
31113;DHT22;17763;48.730;9.136;2024-03-08T08:21:02;4.40;99.90
31113;DHT22;17763;48.730;9.136;2024-03-08T08:23:28;4.40;99.90
31113;DHT22;17763;48.730;9.136;2024-03-08T08:25:55;4.40;99.90
31113;DHT22;17763;48.730;9.136;2024-03-08T08:28:21;4.40;99.90
31113;DHT22;17763;48.730;9.136;2024-03-08T08:30:47;4.40;99.90
31113;DHT22;17763;48.730;9.136;2024-03-08T08:33:14;4.30;99.90
31113;DHT22;17763;48.730;9.136;2024-03-08T08:35:40;4.40;99.90
31113;DHT22;17763;48.730;9.136;2024-03-08T08:38:08;4.40;99.90
31113;DHT22;17763;48.730;9.136;2024-03-08T08:40:34;4.40;99.90
31113;DHT22;17763;48.730;9.136;2024-03-08T08:43:01;4.40;99.90
31113;DHT22;17763;48.730;9.136;2024-03-08T08:45:30;4.30;99.90
31113;DHT22;17763;48.730;9.136;2024-03-08T08:47:57;4.50;99.90
31113;DHT22;17763;48.730;9.136;2024-03-08T08:50:25;4.50;99.90
31113;DHT22;17763;48.730;9.136;2024-03-08T08:52:52;4.50;99.90
31113;DHT22;17763;48.730;9.136;2024-03-08T08:55:18;4.60;99.90
31113;DHT22;17763;48.730;9.136;2024-03-08T08:57:50;4.60;99.90
31113;DHT22;17763;48.730;9.136;2024-03-08T09:00:18;4.60;99.90
31113;DHT22;17763;48.730;9.136;2024-03-08T09:02:48;4.70;99.90
31113;DHT22;17763;48.730;9.136;2024-03-08T09:05:16;4.70;99.90
31113;DHT22;17763;48.730;9.136;2024-03-08T09:07:43;4.70;99.90
31113;DHT22;17763;48.730;9.136;2024-03-08T09:10:12;4.80;99.90
31113;DHT22;17763;48.730;9.136;2024-03-08T09:12:39;4.70;99.90
31113;DHT22;17763;48.730;9.136;2024-03-08T09:15:06;4.70;99.90
31113;DHT22;17763;48.730;9.136;2024-03-08T09:17:36;4.70;99.90
31113;DHT22;17763;48.730;9.136;2024-03-08T09:20:10;4.70;99.90
31113;DHT22;17763;48.730;9.136;2024-03-08T09:22:40;4.70;99.90
31113;DHT22;17763;48.730;9.136;2024-03-08T09:25:08;4.80;99.90
31113;DHT22;17763;48.730;9.136;2024-03-08T09:27:35;4.80;99.90
31113;DHT22;17763;48.730;9.136;2024-03-08T09:30:03;4.90;99.90
31113;DHT22;17763;48.730;9.136;2024-03-08T09:32:30;4.90;99.90
31113;DHT22;17763;48.730;9.136;2024-03-08T09:34:58;4.90;99.90
31113;DHT22;17763;48.730;9.136;2024-03-08T09:37:24;5.00;99.90
31113;DHT22;17763;48.730;9.136;2024-03-08T09:39:49;5.10;99.90
31113;DHT22;17763;48.730;9.136;2024-03-08T09:42:16;5.10;99.90
31113;DHT22;17763;48.730;9.136;2024-03-08T09:44:50;5.20;99.90
31113;DHT22;17763;48.730;9.136;2024-03-08T09:47:16;5.30;99.90
31113;DHT22;17763;48.730;9.136;2024-03-08T09:49:43;5.30;99.90
31113;DHT22;17763;48.730;9.136;2024-03-08T09:52:09;5.40;99.90
31113;DHT22;17763;48.730;9.136;2024-03-08T09:54:36;5.50;99.90
31113;DHT22;17763;48.730;9.136;2024-03-08T09:57:04;5.50;99.90
31113;DHT22;17763;48.730;9.136;2024-03-08T09:59:30;5.50;99.90
31113;DHT22;17763;48.730;9.136;2024-03-08T10:02:18;5.60;99.90
31113;DHT22;17763;48.730;9.136;2024-03-08T10:04:44;5.70;99.90
31113;DHT22;17763;48.730;9.136;2024-03-08T10:07:13;5.80;99.90
31113;DHT22;17763;48.730;9.136;2024-03-08T10:09:39;6.00;99.90
31113;DHT22;17763;48.730;9.136;2024-03-08T10:12:05;5.90;99.90
31113;DHT22;17763;48.730;9.136;2024-03-08T10:14:33;5.90;99.90
31113;DHT22;17763;48.730;9.136;2024-03-08T10:17:01;5.90;99.90
31113;DHT22;17763;48.730;9.136;2024-03-08T10:19:31;5.90;99.90
31113;DHT22;17763;48.730;9.136;2024-03-08T10:21:59;5.90;99.90
31113;DHT22;17763;48.730;9.136;2024-03-08T10:24:25;6.00;99.90
31113;DHT22;17763;48.730;9.136;2024-03-08T10:27:11;6.00;99.90
31113;DHT22;17763;48.730;9.136;2024-03-08T10:29:37;6.00;99.90
31113;DHT22;17763;48.730;9.136;2024-03-08T10:32:04;6.10;99.90
31113;DHT22;17763;48.730;9.136;2024-03-08T10:34:32;6.10;99.90
31113;DHT22;17763;48.730;9.136;2024-03-08T10:37:03;6.20;99.90
31113;DHT22;17763;48.730;9.136;2024-03-08T10:39:35;6.20;99.90
31113;DHT22;17763;48.730;9.136;2024-03-08T10:42:05;6.20;99.90
31113;DHT22;17763;48.730;9.136;2024-03-08T10:45:03;6.20;99.90
31113;DHT22;17763;48.730;9.136;2024-03-08T10:47:31;6.20;99.90
31113;DHT22;17763;48.730;9.136;2024-03-08T10:50:11;6.40;99.90
31113;DHT22;17763;48.730;9.136;2024-03-08T10:52:40;6.40;99.90
31113;DHT22;17763;48.730;9.136;2024-03-08T10:55:07;6.50;99.90
31113;DHT22;17763;48.730;9.136;2024-03-08T10:57:38;6.60;99.90
31113;DHT22;17763;48.730;9.136;2024-03-08T11:00:06;6.60;99.90
31113;DHT22;17763;48.730;9.136;2024-03-08T11:02:35;6.70;99.90
31113;DHT22;17763;48.730;9.136;2024-03-08T11:05:03;6.80;99.90
31113;DHT22;17763;48.730;9.136;2024-03-08T11:07:34;6.80;99.90
31113;DHT22;17763;48.730;9.136;2024-03-08T11:10:06;6.90;99.90
31113;DHT22;17763;48.730;9.136;2024-03-08T11:12:39;7.00;99.90
31113;DHT22;17763;48.730;9.136;2024-03-08T11:15:14;7.10;99.90
31113;DHT22;17763;48.730;9.136;2024-03-08T11:17:49;7.20;99.90
31113;DHT22;17763;48.730;9.136;2024-03-08T11:23:08;7.30;99.90
31113;DHT22;17763;48.730;9.136;2024-03-08T11:25:41;7.50;99.90
31113;DHT22;17763;48.730;9.136;2024-03-08T11:28:15;7.40;99.90
31113;DHT22;17763;48.730;9.136;2024-03-08T11:30:43;7.40;99.90
31113;DHT22;17763;48.730;9.136;2024-03-08T11:33:13;7.40;99.90
31113;DHT22;17763;48.730;9.136;2024-03-08T11:35:39;7.50;99.90
31113;DHT22;17763;48.730;9.136;2024-03-08T11:38:08;7.50;99.90
31113;DHT22;17763;48.730;9.136;2024-03-08T11:40:35;7.60;99.90
31113;DHT22;17763;48.730;9.136;2024-03-08T11:43:01;7.70;99.90
31113;DHT22;17763;48.730;9.136;2024-03-08T11:45:35;7.70;99.90
31113;DHT22;17763;48.730;9.136;2024-03-08T11:48:06;7.80;99.90
31113;DHT22;17763;48.730;9.136;2024-03-08T11:50:32;7.90;99.90
31113;DHT22;17763;48.730;9.136;2024-03-08T11:53:03;7.90;99.90
31113;DHT22;17763;48.730;9.136;2024-03-08T11:55:30;8.00;99.90
31113;DHT22;17763;48.730;9.136;2024-03-08T11:58:07;8.00;99.90
31113;DHT22;17763;48.730;9.136;2024-03-08T12:00:33;8.00;99.90
31113;DHT22;17763;48.730;9.136;2024-03-08T12:03:09;8.10;99.90
31113;DHT22;17763;48.730;9.136;2024-03-08T12:05:37;8.30;99.90
31113;DHT22;17763;48.730;9.136;2024-03-08T12:08:06;8.40;99.90
31113;DHT22;17763;48.730;9.136;2024-03-08T12:10:40;8.30;99.40
31113;DHT22;17763;48.730;9.136;2024-03-08T12:13:07;8.30;99.60
31113;DHT22;17763;48.730;9.136;2024-03-08T12:15:39;8.20;99.30
31113;DHT22;17763;48.730;9.136;2024-03-08T12:18:05;8.20;99.70
31113;DHT22;17763;48.730;9.136;2024-03-08T12:20:32;8.20;99.60
31113;DHT22;17763;48.730;9.136;2024-03-08T12:22:58;8.20;99.90
31113;DHT22;17763;48.730;9.136;2024-03-08T12:25:31;8.20;99.60
31113;DHT22;17763;48.730;9.136;2024-03-08T12:28:15;8.20;99.50
31113;DHT22;17763;48.730;9.136;2024-03-08T12:30:50;8.10;99.80
31113;DHT22;17763;48.730;9.136;2024-03-08T12:33:18;8.30;99.90
31113;DHT22;17763;48.730;9.136;2024-03-08T12:35:51;8.30;99.80
31113;DHT22;17763;48.730;9.136;2024-03-08T12:38:20;8.20;99.50
31113;DHT22;17763;48.730;9.136;2024-03-08T12:40:50;8.20;99.40
31113;DHT22;17763;48.730;9.136;2024-03-08T12:43:16;8.20;99.60
31113;DHT22;17763;48.730;9.136;2024-03-08T12:45:43;8.20;99.60
31113;DHT22;17763;48.730;9.136;2024-03-08T12:48:13;8.30;99.90
31113;DHT22;17763;48.730;9.136;2024-03-08T12:50:41;8.30;99.90
31113;DHT22;17763;48.730;9.136;2024-03-08T12:53:12;8.30;99.60
31113;DHT22;17763;48.730;9.136;2024-03-08T12:55:39;8.30;99.50
31113;DHT22;17763;48.730;9.136;2024-03-08T12:58:06;8.30;99.70
31113;DHT22;17763;48.730;9.136;2024-03-08T13:00:33;8.30;99.60
31113;DHT22;17763;48.730;9.136;2024-03-08T13:03:02;8.30;99.50
31113;DHT22;17763;48.730;9.136;2024-03-08T13:05:30;8.30;99.50
31113;DHT22;17763;48.730;9.136;2024-03-08T13:07:56;8.30;99.50
31113;DHT22;17763;48.730;9.136;2024-03-08T13:10:22;8.50;99.80
31113;DHT22;17763;48.730;9.136;2024-03-08T13:12:48;8.30;99.70
31113;DHT22;17763;48.730;9.136;2024-03-08T13:15:16;8.40;99.90
31113;DHT22;17763;48.730;9.136;2024-03-08T13:17:47;8.40;99.90
31113;DHT22;17763;48.730;9.136;2024-03-08T13:20:16;8.50;99.90
31113;DHT22;17763;48.730;9.136;2024-03-08T13:22:45;8.60;99.80
31113;DHT22;17763;48.730;9.136;2024-03-08T13:25:12;8.70;99.60
31113;DHT22;17763;48.730;9.136;2024-03-08T13:27:40;8.80;99.70
31113;DHT22;17763;48.730;9.136;2024-03-08T13:30:08;9.00;99.50
31113;DHT22;17763;48.730;9.136;2024-03-08T13:32:44;9.00;99.00
31113;DHT22;17763;48.730;9.136;2024-03-08T13:35:10;8.90;98.70
31113;DHT22;17763;48.730;9.136;2024-03-08T13:37:42;9.00;99.00
31113;DHT22;17763;48.730;9.136;2024-03-08T13:40:11;9.00;98.80
31113;DHT22;17763;48.730;9.136;2024-03-08T13:42:37;9.10;98.60
31113;DHT22;17763;48.730;9.136;2024-03-08T13:45:05;9.20;98.30
31113;DHT22;17763;48.730;9.136;2024-03-08T13:47:32;9.30;98.00
31113;DHT22;17763;48.730;9.136;2024-03-08T13:49:59;9.30;97.70
31113;DHT22;17763;48.730;9.136;2024-03-08T13:52:26;9.40;97.40
31113;DHT22;17763;48.730;9.136;2024-03-08T13:54:55;9.50;97.00
31113;DHT22;17763;48.730;9.136;2024-03-08T13:57:23;9.50;96.90
31113;DHT22;17763;48.730;9.136;2024-03-08T13:59:51;9.50;96.60
31113;DHT22;17763;48.730;9.136;2024-03-08T14:02:19;9.60;96.90
31113;DHT22;17763;48.730;9.136;2024-03-08T14:04:45;9.70;96.50
31113;DHT22;17763;48.730;9.136;2024-03-08T14:07:10;9.70;95.90
31113;DHT22;17763;48.730;9.136;2024-03-08T14:09:37;9.70;95.50
31113;DHT22;17763;48.730;9.136;2024-03-08T14:12:03;9.70;95.70
31113;DHT22;17763;48.730;9.136;2024-03-08T14:14:35;9.80;95.70
31113;DHT22;17763;48.730;9.136;2024-03-08T14:17:03;9.90;95.60
31113;DHT22;17763;48.730;9.136;2024-03-08T14:19:29;9.90;94.80
31113;DHT22;17763;48.730;9.136;2024-03-08T14:22:02;9.90;95.00
31113;DHT22;17763;48.730;9.136;2024-03-08T14:24:30;9.90;94.80
31113;DHT22;17763;48.730;9.136;2024-03-08T14:26:56;9.90;95.00
31113;DHT22;17763;48.730;9.136;2024-03-08T14:29:27;10.00;95.40
31113;DHT22;17763;48.730;9.136;2024-03-08T14:31:55;10.10;95.70
31113;DHT22;17763;48.730;9.136;2024-03-08T14:34:25;10.20;95.60
31113;DHT22;17763;48.730;9.136;2024-03-08T14:36:55;10.30;95.30
31113;DHT22;17763;48.730;9.136;2024-03-08T14:39:24;10.30;94.20
31113;DHT22;17763;48.730;9.136;2024-03-08T14:41:57;10.40;93.40
31113;DHT22;17763;48.730;9.136;2024-03-08T14:44:26;10.50;92.70
31113;DHT22;17763;48.730;9.136;2024-03-08T14:46:52;10.50;92.50
31113;DHT22;17763;48.730;9.136;2024-03-08T14:49:18;10.60;92.50
31113;DHT22;17763;48.730;9.136;2024-03-08T14:51:47;10.70;92.50
31113;DHT22;17763;48.730;9.136;2024-03-08T14:54:15;10.80;92.40
31113;DHT22;17763;48.730;9.136;2024-03-08T14:56:40;10.90;92.10
31113;DHT22;17763;48.730;9.136;2024-03-08T14:59:07;10.90;93.30
31113;DHT22;17763;48.730;9.136;2024-03-08T15:01:34;11.10;95.40
31113;DHT22;17763;48.730;9.136;2024-03-08T15:04:02;11.20;95.00
31113;DHT22;17763;48.730;9.136;2024-03-08T15:06:40;11.30;92.90
31113;DHT22;17763;48.730;9.136;2024-03-08T15:09:06;11.30;91.90
31113;DHT22;17763;48.730;9.136;2024-03-08T15:11:46;11.50;91.50
31113;DHT22;17763;48.730;9.136;2024-03-08T15:14:20;11.60;91.10
31113;DHT22;17763;48.730;9.136;2024-03-08T15:16:46;11.40;91.00
31113;DHT22;17763;48.730;9.136;2024-03-08T15:19:14;11.60;90.90
31113;DHT22;17763;48.730;9.136;2024-03-08T15:21:43;11.60;90.40
31113;DHT22;17763;48.730;9.136;2024-03-08T15:24:11;11.80;90.20
31113;DHT22;17763;48.730;9.136;2024-03-08T15:26:41;12.10;89.40
31113;DHT22;17763;48.730;9.136;2024-03-08T15:29:08;12.40;88.00
31113;DHT22;17763;48.730;9.136;2024-03-08T15:31:34;12.50;87.00
31113;DHT22;17763;48.730;9.136;2024-03-08T15:34:02;12.70;86.00
31113;DHT22;17763;48.730;9.136;2024-03-08T15:36:32;13.00;85.50
31113;DHT22;17763;48.730;9.136;2024-03-08T15:38:59;13.20;84.00
31113;DHT22;17763;48.730;9.136;2024-03-08T15:41:25;13.20;82.60
31113;DHT22;17763;48.730;9.136;2024-03-08T15:43:52;13.20;81.80
31113;DHT22;17763;48.730;9.136;2024-03-08T15:46:22;13.20;81.70
31113;DHT22;17763;48.730;9.136;2024-03-08T15:48:50;13.20;81.60
31113;DHT22;17763;48.730;9.136;2024-03-08T15:51:19;13.30;81.60